Terminal Aerodrome Forecast
Issued by NWS Jackson, KY

Home | Current Version | Previous Version | Text Only | Print | Product List | Glossary On
Versions: 1 2 3 4 5 6 7 8 9 10 11 12 13
000
FTUS43 KJKL 211300 AAA
TAFLOZ
TAF AMD
KLOZ 211316Z 2113/2212 00000KT 5SM BR SKC
     FM211400 VRB03KT P6SM SKC
     FM212100 VRB04KT P6SM FEW025
     FM220500 00000KT P6SM SCT050 BKN200=

USA.gov is the U.S. government's official web portal to all federal, state and local government web resources and services.